createdAt,value
2023-02-20T00:00:08.000Z,99285
2023-02-20T00:01:35.000Z,99276
2023-02-20T00:03:41.000Z,99278
2023-02-20T00:05:08.000Z,99278
2023-02-20T00:07:14.000Z,99274
2023-02-20T00:08:40.000Z,99272
2023-02-20T00:10:46.000Z,99274
2023-02-20T00:12:13.000Z,99274
2023-02-20T00:14:19.000Z,99277
2023-02-20T00:17:10.000Z,99287
2023-02-20T00:18:37.000Z,99286
2023-02-20T00:20:43.000Z,99278
2023-02-20T00:22:09.000Z,99281
2023-02-20T00:24:15.000Z,99288
2023-02-20T00:25:42.000Z,99292
2023-02-20T00:27:48.000Z,99285
2023-02-20T00:29:15.000Z,99287
2023-02-20T00:31:21.000Z,99286
2023-02-20T00:32:48.000Z,99282
2023-02-20T00:34:54.000Z,99273
2023-02-20T00:36:20.000Z,99273
2023-02-20T00:38:27.000Z,99270
2023-02-20T00:39:53.000Z,99265
2023-02-20T00:41:59.000Z,99265
2023-02-20T00:43:26.000Z,99264
2023-02-20T00:45:32.000Z,99261
2023-02-20T00:46:58.000Z,99259
2023-02-20T00:49:05.000Z,99258
2023-02-20T00:50:31.000Z,99255
2023-02-20T00:52:37.000Z,99265
2023-02-20T00:55:28.000Z,99263
2023-02-20T00:56:55.000Z,99269
2023-02-20T00:59:01.000Z,99266
2023-02-20T01:00:27.000Z,99266
2023-02-20T01:02:33.000Z,99267
2023-02-20T01:04:00.000Z,99272
2023-02-20T01:06:06.000Z,99266
2023-02-20T01:07:33.000Z,99268
2023-02-20T01:09:39.000Z,99269
2023-02-20T01:11:05.000Z,99260
2023-02-20T01:13:11.000Z,99267
2023-02-20T01:14:38.000Z,99269
2023-02-20T01:16:44.000Z,99266
2023-02-20T01:18:11.000Z,99263
2023-02-20T01:20:17.000Z,99257
2023-02-20T01:21:44.000Z,99258
2023-02-20T01:23:50.000Z,99252
2023-02-20T01:25:16.000Z,99252
2023-02-20T01:27:22.000Z,99246
2023-02-20T01:28:49.000Z,99245
2023-02-20T01:30:55.000Z,99246
2023-02-20T01:33:46.000Z,99234
2023-02-20T01:35:13.000Z,99230
2023-02-20T01:37:19.000Z,99232
2023-02-20T01:38:46.000Z,99234
2023-02-20T01:40:52.000Z,99238
2023-02-20T01:42:18.000Z,99242
2023-02-20T01:44:25.000Z,99247
2023-02-20T01:45:51.000Z,99245
2023-02-20T01:47:57.000Z,99235
2023-02-20T01:49:24.000Z,99229
2023-02-20T01:51:30.000Z,99232
2023-02-20T01:52:56.000Z,99234
2023-02-20T01:55:02.000Z,99232
2023-02-20T01:56:29.000Z,99234
2023-02-20T01:58:35.000Z,99236
2023-02-20T02:00:02.000Z,99236
2023-02-20T02:02:08.000Z,99232
2023-02-20T02:03:34.000Z,99228
2023-02-20T02:05:40.000Z,99232
2023-02-20T02:07:07.000Z,99233
2023-02-20T02:09:13.000Z,99228
2023-02-20T02:12:04.000Z,99230
2023-02-20T02:13:31.000Z,99229
2023-02-20T02:15:37.000Z,99227
2023-02-20T02:17:03.000Z,99224
2023-02-20T02:19:09.000Z,99223
2023-02-20T02:20:36.000Z,99224
2023-02-20T02:22:42.000Z,99219
2023-02-20T02:24:09.000Z,99221
2023-02-20T02:26:15.000Z,99227
2023-02-20T02:27:41.000Z,99229
2023-02-20T02:29:47.000Z,99228
2023-02-20T02:31:14.000Z,99237
2023-02-20T02:33:20.000Z,99237
2023-02-20T02:34:47.000Z,99235
2023-02-20T02:36:53.000Z,99233
2023-02-20T02:38:19.000Z,99231
2023-02-20T02:40:25.000Z,99228
2023-02-20T02:41:52.000Z,99231
2023-02-20T02:43:58.000Z,99233
2023-02-20T02:45:24.000Z,99230
2023-02-20T02:47:31.000Z,99224
2023-02-20T02:50:22.000Z,99221
2023-02-20T02:51:48.000Z,99224
2023-02-20T02:53:55.000Z,99226
2023-02-20T02:55:21.000Z,99225
2023-02-20T02:57:27.000Z,99220
2023-02-20T02:58:54.000Z,99218
2023-02-20T03:01:00.000Z,99219
2023-02-20T03:02:26.000Z,99220
2023-02-20T03:04:33.000Z,99221
2023-02-20T03:05:59.000Z,99224
2023-02-20T03:08:05.000Z,99218
2023-02-20T03:09:32.000Z,99213
2023-02-20T03:11:38.000Z,99205
2023-02-20T03:13:04.000Z,99201
2023-02-20T03:15:11.000Z,99204
2023-02-20T03:16:37.000Z,99205
2023-02-20T03:18:43.000Z,99201
2023-02-20T03:20:10.000Z,99210
2023-02-20T03:22:16.000Z,99205
2023-02-20T03:23:42.000Z,99208
2023-02-20T03:25:48.000Z,99220
2023-02-20T03:28:39.000Z,99220
2023-02-20T03:30:06.000Z,99219
2023-02-20T03:32:12.000Z,99214
2023-02-20T03:33:39.000Z,99207
2023-02-20T03:35:45.000Z,99198
2023-02-20T03:37:11.000Z,99193
2023-02-20T03:39:18.000Z,99190
2023-02-20T03:40:44.000Z,99196
2023-02-20T03:42:50.000Z,99191
2023-02-20T03:44:17.000Z,99194
2023-02-20T03:46:23.000Z,99197
2023-02-20T03:47:49.000Z,99205
2023-02-20T03:49:55.000Z,99208
2023-02-20T03:51:22.000Z,99210
2023-02-20T03:53:28.000Z,99203
2023-02-20T03:54:55.000Z,99198
2023-02-20T03:57:01.000Z,99200
2023-02-20T03:58:27.000Z,99196
2023-02-20T04:00:33.000Z,99196
2023-02-20T04:02:00.000Z,99199
2023-02-20T04:04:06.000Z,99193
2023-02-20T04:06:57.000Z,99192
2023-02-20T04:08:24.000Z,99188
2023-02-20T04:10:30.000Z,99188
2023-02-20T04:11:56.000Z,99181
2023-02-20T04:14:02.000Z,99180
2023-02-20T04:15:29.000Z,99177
2023-02-20T04:17:35.000Z,99167
2023-02-20T04:19:02.000Z,99164
2023-02-20T04:21:08.000Z,99154
2023-02-20T04:22:34.000Z,99157
2023-02-20T04:24:40.000Z,99157
2023-02-20T04:26:07.000Z,99161
2023-02-20T04:28:13.000Z,99171
2023-02-20T04:29:39.000Z,99167
2023-02-20T04:31:46.000Z,99167
2023-02-20T04:33:12.000Z,99168
2023-02-20T04:35:18.000Z,99173
2023-02-20T04:36:45.000Z,99179
2023-02-20T04:38:51.000Z,99177
2023-02-20T04:40:17.000Z,99177
2023-02-20T04:42:24.000Z,99160
2023-02-20T04:45:15.000Z,99165
2023-02-20T04:46:41.000Z,99168
2023-02-20T04:48:47.000Z,99170
2023-02-20T04:50:14.000Z,99177
2023-02-20T04:52:20.000Z,99173
2023-02-20T04:53:46.000Z,99170
2023-02-20T04:55:53.000Z,99164
2023-02-20T04:57:19.000Z,99164
2023-02-20T04:59:25.000Z,99156
2023-02-20T05:00:52.000Z,99165
2023-02-20T05:02:58.000Z,99168
2023-02-20T05:04:24.000Z,99167
2023-02-20T05:06:30.000Z,99166
2023-02-20T05:07:57.000Z,99169
2023-02-20T05:10:03.000Z,99163
2023-02-20T05:11:29.000Z,99161
2023-02-20T05:13:35.000Z,99167
2023-02-20T05:15:02.000Z,99167
2023-02-20T05:17:08.000Z,99164
2023-02-20T05:18:35.000Z,99167
2023-02-20T05:20:41.000Z,99167
2023-02-20T05:23:32.000Z,99160
2023-02-20T05:24:59.000Z,99163
2023-02-20T05:27:05.000Z,99164
2023-02-20T05:28:31.000Z,99163
2023-02-20T05:30:37.000Z,99164
2023-02-20T05:32:04.000Z,99164
2023-02-20T05:34:10.000Z,99165
2023-02-20T05:35:37.000Z,99166
2023-02-20T05:37:43.000Z,99165
2023-02-20T05:39:09.000Z,99162
2023-02-20T05:41:15.000Z,99160
2023-02-20T05:42:42.000Z,99148
2023-02-20T05:44:48.000Z,99127
2023-02-20T05:46:15.000Z,99117
2023-02-20T05:48:21.000Z,99131
2023-02-20T05:49:48.000Z,99141
2023-02-20T05:51:54.000Z,99151
2023-02-20T05:53:20.000Z,99142
2023-02-20T05:55:26.000Z,99129
2023-02-20T05:56:53.000Z,99131
2023-02-20T05:58:59.000Z,99126
2023-02-20T06:01:50.000Z,99125
2023-02-20T06:03:17.000Z,99118
2023-02-20T06:05:23.000Z,99102
2023-02-20T06:06:50.000Z,99100
2023-02-20T06:08:56.000Z,99108
2023-02-20T06:10:22.000Z,99122
2023-02-20T06:12:28.000Z,99118
2023-02-20T06:13:55.000Z,99122
2023-02-20T06:16:01.000Z,99127
2023-02-20T06:17:28.000Z,99122
2023-02-20T06:19:34.000Z,99114
2023-02-20T06:21:00.000Z,99112
2023-02-20T06:23:06.000Z,99114
2023-02-20T06:24:33.000Z,99113
2023-02-20T06:26:39.000Z,99106
2023-02-20T06:28:05.000Z,99116
2023-02-20T06:30:12.000Z,99115
2023-02-20T06:31:38.000Z,99117
2023-02-20T06:33:45.000Z,99117
2023-02-20T06:35:11.000Z,99114
2023-02-20T06:37:17.000Z,99117
2023-02-20T06:40:09.000Z,99117
2023-02-20T06:41:35.000Z,99114
2023-02-20T06:43:42.000Z,99112
2023-02-20T06:45:08.000Z,99112
2023-02-20T06:47:14.000Z,99114
2023-02-20T06:48:41.000Z,99108
2023-02-20T06:50:47.000Z,99101
2023-02-20T06:52:14.000Z,99106
2023-02-20T06:54:20.000Z,99100
2023-02-20T06:55:47.000Z,99099
2023-02-20T06:57:53.000Z,99100
2023-02-20T06:59:19.000Z,99103
2023-02-20T07:01:25.000Z,99112
2023-02-20T07:02:52.000Z,99110
2023-02-20T07:04:58.000Z,99119
2023-02-20T07:06:24.000Z,99127
2023-02-20T07:08:30.000Z,99126
2023-02-20T07:09:57.000Z,99127
2023-02-20T07:12:03.000Z,99126
2023-02-20T07:13:29.000Z,99128
2023-02-20T07:15:36.000Z,99133
2023-02-20T07:18:27.000Z,99137
2023-02-20T07:19:53.000Z,99133
2023-02-20T07:21:59.000Z,99131
2023-02-20T07:23:26.000Z,99127
2023-02-20T07:25:32.000Z,99130
2023-02-20T07:26:59.000Z,99131
2023-02-20T07:29:05.000Z,99134
2023-02-20T07:30:31.000Z,99133
2023-02-20T07:32:37.000Z,99128
2023-02-20T07:34:04.000Z,99131
2023-02-20T07:36:10.000Z,99124
2023-02-20T07:37:37.000Z,99127
2023-02-20T07:39:43.000Z,99123
2023-02-20T07:41:10.000Z,99122
2023-02-20T07:43:16.000Z,99120
2023-02-20T07:44:42.000Z,99116
2023-02-20T07:46:49.000Z,99111
2023-02-20T07:48:15.000Z,99103
2023-02-20T07:50:21.000Z,99096
2023-02-20T07:51:48.000Z,99099
2023-02-20T07:53:54.000Z,99098
2023-02-20T07:56:45.000Z,99089
2023-02-20T07:58:12.000Z,99084
2023-02-20T08:00:18.000Z,99084
2023-02-20T08:01:44.000Z,99084
2023-02-20T08:03:50.000Z,99082
2023-02-20T08:05:17.000Z,99084
2023-02-20T08:07:23.000Z,99081
2023-02-20T08:08:50.000Z,99082
2023-02-20T08:10:56.000Z,99077
2023-02-20T08:12:34.000Z,99078
2023-02-20T08:14:40.000Z,99073
2023-02-20T08:16:07.000Z,99077
2023-02-20T08:18:13.000Z,99075
2023-02-20T08:19:50.000Z,99074
2023-02-20T08:21:56.000Z,99078
2023-02-20T08:23:22.000Z,99078
2023-02-20T08:25:28.000Z,99077
2023-02-20T08:26:55.000Z,99083
2023-02-20T08:29:04.000Z,99084
2023-02-20T08:30:30.000Z,99084
2023-02-20T08:32:36.000Z,99082
2023-02-20T08:35:28.000Z,99080
2023-02-20T08:36:54.000Z,99080
2023-02-20T08:39:01.000Z,99082
2023-02-20T08:40:27.000Z,99084
2023-02-20T08:42:33.000Z,99087
2023-02-20T08:44:00.000Z,99085
2023-02-20T08:46:06.000Z,99083
2023-02-20T08:47:33.000Z,99078
2023-02-20T08:49:39.000Z,99078
2023-02-20T08:51:05.000Z,99080
2023-02-20T08:53:11.000Z,99087
2023-02-20T08:54:38.000Z,99081
2023-02-20T08:56:44.000Z,99083
2023-02-20T08:58:11.000Z,99080
2023-02-20T09:00:17.000Z,99075
2023-02-20T09:01:43.000Z,99073
2023-02-20T09:03:49.000Z,99075
2023-02-20T09:05:16.000Z,99073
2023-02-20T09:07:22.000Z,99066
2023-02-20T09:08:49.000Z,99066
2023-02-20T09:10:55.000Z,99066
2023-02-20T09:13:46.000Z,99071
2023-02-20T09:15:13.000Z,99069
2023-02-20T09:17:19.000Z,99073
2023-02-20T09:18:46.000Z,99071
2023-02-20T09:20:52.000Z,99067
2023-02-20T09:22:18.000Z,99069
2023-02-20T09:24:24.000Z,99071
2023-02-20T09:25:51.000Z,99066
2023-02-20T09:27:57.000Z,99064
2023-02-20T09:29:23.000Z,99067
2023-02-20T09:31:29.000Z,99069
2023-02-20T09:32:56.000Z,99065
2023-02-20T09:35:02.000Z,99058
2023-02-20T09:36:29.000Z,99062
2023-02-20T09:38:35.000Z,99058
2023-02-20T09:40:01.000Z,99062
2023-02-20T09:42:08.000Z,99065
2023-02-20T09:43:34.000Z,99063
2023-02-20T09:45:40.000Z,99064
2023-02-20T09:47:07.000Z,99057
2023-02-20T09:49:13.000Z,99060
2023-02-20T09:52:04.000Z,99058
2023-02-20T09:53:31.000Z,99051
2023-02-20T09:55:37.000Z,99045
2023-02-20T09:57:03.000Z,99050
2023-02-20T09:59:09.000Z,99050
2023-02-20T10:00:36.000Z,99050
2023-02-20T10:02:42.000Z,99043
2023-02-20T10:04:09.000Z,99039
2023-02-20T10:06:15.000Z,99043
2023-02-20T10:07:41.000Z,99039
2023-02-20T10:09:47.000Z,99047
2023-02-20T10:11:14.000Z,99045
2023-02-20T10:13:20.000Z,99047
2023-02-20T10:14:47.000Z,99047
2023-02-20T10:16:53.000Z,99041
2023-02-20T10:18:19.000Z,99042
2023-02-20T10:20:25.000Z,99040
2023-02-20T10:21:52.000Z,99034
2023-02-20T10:23:58.000Z,99034
2023-02-20T10:25:32.000Z,99031
2023-02-20T10:27:38.000Z,99021
2023-02-20T10:30:29.000Z,99020
2023-02-20T10:31:56.000Z,99028
2023-02-20T10:34:02.000Z,99018
2023-02-20T10:35:29.000Z,99008
2023-02-20T10:37:35.000Z,99022
2023-02-20T10:39:13.000Z,99017
2023-02-20T10:41:19.000Z,99014
2023-02-20T10:42:46.000Z,99025
2023-02-20T10:44:52.000Z,99021
2023-02-20T10:46:19.000Z,99023
2023-02-20T10:48:26.000Z,99037
2023-02-20T10:49:52.000Z,99034
2023-02-20T10:51:58.000Z,99027
2023-02-20T10:53:25.000Z,99025
2023-02-20T10:55:31.000Z,99024
2023-02-20T10:56:57.000Z,99021
2023-02-20T10:59:03.000Z,99009
2023-02-20T11:00:30.000Z,99008
2023-02-20T11:02:36.000Z,99008
2023-02-20T11:04:03.000Z,99006
2023-02-20T11:06:09.000Z,99003
2023-02-20T11:09:00.000Z,98995
2023-02-20T11:10:26.000Z,98991
2023-02-20T11:12:32.000Z,98982
2023-02-20T11:13:59.000Z,98979
2023-02-20T11:16:05.000Z,98979
2023-02-20T11:17:32.000Z,98972
2023-02-20T11:19:38.000Z,98969
2023-02-20T11:21:04.000Z,98971
2023-02-20T11:23:11.000Z,98967
2023-02-20T11:24:37.000Z,98968
2023-02-20T11:26:43.000Z,98957
2023-02-20T11:28:10.000Z,98955
2023-02-20T11:30:16.000Z,98950
2023-02-20T11:31:43.000Z,98940
2023-02-20T11:33:49.000Z,98938
2023-02-20T11:35:16.000Z,98932
2023-02-20T11:37:22.000Z,98930
2023-02-20T11:38:48.000Z,98927
2023-02-20T11:40:54.000Z,98921
2023-02-20T11:42:21.000Z,98931
2023-02-20T11:44:27.000Z,98923
2023-02-20T11:47:18.000Z,98920
2023-02-20T11:48:45.000Z,98917
2023-02-20T11:50:51.000Z,98916
2023-02-20T11:52:17.000Z,98919
2023-02-20T11:54:23.000Z,98903
2023-02-20T11:55:50.000Z,98904
2023-02-20T11:58:06.000Z,98901
2023-02-20T11:59:32.000Z,98904
2023-02-20T12:01:38.000Z,98903
2023-02-20T12:03:06.000Z,98898
2023-02-20T12:05:12.000Z,98891
2023-02-20T12:06:38.000Z,98892
2023-02-20T12:08:45.000Z,98892
2023-02-20T12:10:11.000Z,98890
2023-02-20T12:12:17.000Z,98888
2023-02-20T12:13:44.000Z,98882
2023-02-20T12:15:50.000Z,98880
2023-02-20T12:17:17.000Z,98878
2023-02-20T12:19:23.000Z,98875
2023-02-20T12:20:49.000Z,98869
2023-02-20T12:22:56.000Z,98867
2023-02-20T12:25:47.000Z,98863
2023-02-20T12:27:14.000Z,98857
2023-02-20T12:29:20.000Z,98860
2023-02-20T12:30:46.000Z,98858
2023-02-20T12:32:52.000Z,98856
2023-02-20T12:34:19.000Z,98852
2023-02-20T12:36:25.000Z,98840
2023-02-20T12:37:52.000Z,98835
2023-02-20T12:39:58.000Z,98837
2023-02-20T12:41:24.000Z,98834
2023-02-20T12:43:30.000Z,98837
2023-02-20T12:44:57.000Z,98834
2023-02-20T12:47:03.000Z,98823
2023-02-20T12:48:29.000Z,98822
2023-02-20T12:50:35.000Z,98817
2023-02-20T12:52:02.000Z,98818
2023-02-20T12:54:08.000Z,98810
2023-02-20T12:55:35.000Z,98806
2023-02-20T12:57:41.000Z,98805
2023-02-20T12:59:07.000Z,98805
2023-02-20T13:01:14.000Z,98808
2023-02-20T13:04:05.000Z,98799
2023-02-20T13:05:31.000Z,98798
2023-02-20T13:07:37.000Z,98793
2023-02-20T13:09:04.000Z,98784
2023-02-20T13:11:10.000Z,98775
2023-02-20T13:12:36.000Z,98777
2023-02-20T13:14:43.000Z,98774
2023-02-20T13:16:09.000Z,98768
2023-02-20T13:18:15.000Z,98762
2023-02-20T13:19:42.000Z,98761
2023-02-20T13:21:48.000Z,98755
2023-02-20T13:23:14.000Z,98756
2023-02-20T13:25:20.000Z,98748
2023-02-20T13:26:47.000Z,98752
2023-02-20T13:28:53.000Z,98741
2023-02-20T13:30:19.000Z,98749
2023-02-20T13:32:26.000Z,98747
2023-02-20T13:33:52.000Z,98742
2023-02-20T13:35:59.000Z,98745
2023-02-20T13:37:25.000Z,98748
2023-02-20T13:39:31.000Z,98748
2023-02-20T13:42:22.000Z,98748
2023-02-20T13:43:49.000Z,98738
2023-02-20T13:45:55.000Z,98735
2023-02-20T13:47:22.000Z,98740
2023-02-20T13:49:34.000Z,98738
2023-02-20T13:51:01.000Z,98729
2023-02-20T13:53:07.000Z,98729
2023-02-20T13:54:33.000Z,98720
2023-02-20T13:56:39.000Z,98719
2023-02-20T13:58:06.000Z,98717
2023-02-20T14:00:12.000Z,98722
2023-02-20T14:01:39.000Z,98716
2023-02-20T14:03:45.000Z,98715
2023-02-20T14:05:11.000Z,98719
2023-02-20T14:07:18.000Z,98716
2023-02-20T14:08:44.000Z,98713
2023-02-20T14:10:50.000Z,98715
2023-02-20T14:12:17.000Z,98711
2023-02-20T14:14:23.000Z,98711
2023-02-20T14:15:49.000Z,98709
2023-02-20T14:17:55.000Z,98707
2023-02-20T14:20:47.000Z,98708
2023-02-20T14:22:13.000Z,98722
2023-02-20T14:24:19.000Z,98726
2023-02-20T14:25:46.000Z,98723
2023-02-20T14:28:06.000Z,98710
2023-02-20T14:29:32.000Z,98719
2023-02-20T14:31:38.000Z,98729
2023-02-20T14:33:05.000Z,98729
2023-02-20T14:35:11.000Z,98720
2023-02-20T14:36:38.000Z,98724
2023-02-20T14:38:44.000Z,98731
2023-02-20T14:40:10.000Z,98726
2023-02-20T14:42:17.000Z,98717
2023-02-20T14:43:43.000Z,98721
2023-02-20T14:45:49.000Z,98722
2023-02-20T14:47:16.000Z,98722
2023-02-20T14:49:22.000Z,98720
2023-02-20T14:50:51.000Z,98711
2023-02-20T14:52:57.000Z,98715
2023-02-20T14:54:24.000Z,98715
2023-02-20T14:56:30.000Z,98723
2023-02-20T14:59:23.000Z,98721
2023-02-20T15:00:50.000Z,98706
2023-02-20T15:02:56.000Z,98717
2023-02-20T15:04:23.000Z,98721
2023-02-20T15:06:29.000Z,98727
2023-02-20T15:07:55.000Z,98722
2023-02-20T15:10:01.000Z,98736
2023-02-20T15:11:28.000Z,98729
2023-02-20T15:13:34.000Z,98726
2023-02-20T15:15:01.000Z,98722
2023-02-20T15:17:07.000Z,98723
2023-02-20T15:18:33.000Z,98729
2023-02-20T15:20:40.000Z,98726
2023-02-20T15:22:06.000Z,98727
2023-02-20T15:24:12.000Z,98724
2023-02-20T15:25:39.000Z,98726
2023-02-20T15:27:45.000Z,98715
2023-02-20T15:29:11.000Z,98716
2023-02-20T15:31:18.000Z,98718
2023-02-20T15:32:45.000Z,98728
2023-02-20T15:34:51.000Z,98724
2023-02-20T15:37:41.000Z,98727
2023-02-20T15:39:16.000Z,98714
2023-02-20T15:41:22.000Z,98715
2023-02-20T15:42:49.000Z,98717
2023-02-20T15:44:55.000Z,98712
2023-02-20T15:46:21.000Z,98713
2023-02-20T15:48:27.000Z,98712
2023-02-20T15:49:54.000Z,98705
2023-02-20T15:52:00.000Z,98701
2023-02-20T15:53:35.000Z,98701
2023-02-20T15:55:42.000Z,98697
2023-02-20T15:57:08.000Z,98705
2023-02-20T15:59:14.000Z,98706
2023-02-20T16:00:41.000Z,98707
2023-02-20T16:02:47.000Z,98699
2023-02-20T16:04:14.000Z,98701
2023-02-20T16:06:21.000Z,98696
2023-02-20T16:07:48.000Z,98700
2023-02-20T16:09:54.000Z,98691
2023-02-20T16:11:21.000Z,98698
2023-02-20T16:13:27.000Z,98698
2023-02-20T16:16:18.000Z,98696
2023-02-20T16:17:51.000Z,98695
2023-02-20T16:19:57.000Z,98700
2023-02-20T16:21:23.000Z,98698
2023-02-20T16:23:30.000Z,98698
2023-02-20T16:24:57.000Z,98698
2023-02-20T16:27:03.000Z,98694
2023-02-20T16:28:36.000Z,98692
2023-02-20T16:30:42.000Z,98692
2023-02-20T16:32:08.000Z,98693
2023-02-20T16:34:15.000Z,98701
2023-02-20T16:35:48.000Z,98707
2023-02-20T16:37:54.000Z,98704
2023-02-20T16:39:21.000Z,98704
2023-02-20T16:41:33.000Z,98712
2023-02-20T16:42:59.000Z,98710
2023-02-20T16:45:06.000Z,98712
2023-02-20T16:46:32.000Z,98717
2023-02-20T16:48:44.000Z,98720
2023-02-20T16:50:11.000Z,98719
2023-02-20T16:52:17.000Z,98724
2023-02-20T16:55:08.000Z,98726
2023-02-20T16:56:35.000Z,98733
2023-02-20T16:58:41.000Z,98730
2023-02-20T17:00:07.000Z,98728
2023-02-20T17:02:13.000Z,98725
2023-02-20T17:03:40.000Z,98727
2023-02-20T17:05:46.000Z,98731
2023-02-20T17:07:13.000Z,98733
2023-02-20T17:09:19.000Z,98736
2023-02-20T17:10:45.000Z,98732
2023-02-20T17:12:51.000Z,98730
2023-02-20T17:14:18.000Z,98734
2023-02-20T17:16:24.000Z,98731
2023-02-20T17:17:58.000Z,98730
2023-02-20T17:20:04.000Z,98731
2023-02-20T17:21:30.000Z,98731
2023-02-20T17:23:36.000Z,98733
2023-02-20T17:25:03.000Z,98732
2023-02-20T17:27:09.000Z,98729
2023-02-20T17:28:36.000Z,98733
2023-02-20T17:30:42.000Z,98729
2023-02-20T17:33:33.000Z,98736
2023-02-20T17:35:00.000Z,98737
2023-02-20T17:37:06.000Z,98737
2023-02-20T17:38:32.000Z,98744
2023-02-20T17:40:39.000Z,98737
2023-02-20T17:42:05.000Z,98735
2023-02-20T17:44:11.000Z,98738
2023-02-20T17:45:38.000Z,98732
2023-02-20T17:47:44.000Z,98728
2023-02-20T17:49:10.000Z,98729
2023-02-20T17:51:16.000Z,98740
2023-02-20T17:52:43.000Z,98737
2023-02-20T17:54:49.000Z,98737
2023-02-20T17:56:16.000Z,98736
2023-02-20T17:58:22.000Z,98734
2023-02-20T17:59:48.000Z,98735
2023-02-20T18:01:54.000Z,98738
2023-02-20T18:03:21.000Z,98741
2023-02-20T18:05:27.000Z,98743
2023-02-20T18:06:54.000Z,98745
2023-02-20T18:09:00.000Z,98745
2023-02-20T18:11:51.000Z,98744
2023-02-20T18:13:18.000Z,98738
2023-02-20T18:15:24.000Z,98742
2023-02-20T18:16:50.000Z,98743
2023-02-20T18:18:56.000Z,98747
2023-02-20T18:20:23.000Z,98746
2023-02-20T18:22:29.000Z,98746
2023-02-20T18:23:56.000Z,98748
2023-02-20T18:26:02.000Z,98751
2023-02-20T18:27:28.000Z,98747
2023-02-20T18:29:34.000Z,98751
2023-02-20T18:31:01.000Z,98746
2023-02-20T18:33:07.000Z,98746
2023-02-20T18:34:34.000Z,98750
2023-02-20T18:36:40.000Z,98755
2023-02-20T18:38:06.000Z,98751
2023-02-20T18:40:12.000Z,98751
2023-02-20T18:41:39.000Z,98748
2023-02-20T18:43:45.000Z,98750
2023-02-20T18:45:11.000Z,98751
2023-02-20T18:47:18.000Z,98745
2023-02-20T18:50:09.000Z,98744
2023-02-20T18:51:35.000Z,98747
2023-02-20T18:53:42.000Z,98749
2023-02-20T18:55:08.000Z,98747
2023-02-20T18:57:14.000Z,98742
2023-02-20T18:58:41.000Z,98733
2023-02-20T19:00:47.000Z,98736
2023-02-20T19:02:14.000Z,98732
2023-02-20T19:04:20.000Z,98734
2023-02-20T19:05:47.000Z,98731
2023-02-20T19:07:53.000Z,98731
2023-02-20T19:09:19.000Z,98730
2023-02-20T19:11:25.000Z,98739
2023-02-20T19:12:52.000Z,98734
2023-02-20T19:14:58.000Z,98732
2023-02-20T19:16:25.000Z,98735
2023-02-20T19:18:31.000Z,98731
2023-02-20T19:20:01.000Z,98730
2023-02-20T19:22:07.000Z,98739
2023-02-20T19:23:34.000Z,98739
2023-02-20T19:25:40.000Z,98740
2023-02-20T19:28:33.000Z,98743
2023-02-20T19:30:00.000Z,98743
2023-02-20T19:32:06.000Z,98742
2023-02-20T19:33:33.000Z,98739
2023-02-20T19:35:39.000Z,98744
2023-02-20T19:37:06.000Z,98741
2023-02-20T19:39:12.000Z,98747
2023-02-20T19:40:38.000Z,98748
2023-02-20T19:42:44.000Z,98748
2023-02-20T19:44:11.000Z,98742
2023-02-20T19:46:17.000Z,98740
2023-02-20T19:47:44.000Z,98742
2023-02-20T19:49:50.000Z,98736
2023-02-20T19:51:17.000Z,98735
2023-02-20T19:53:23.000Z,98734
2023-02-20T19:54:49.000Z,98731
2023-02-20T19:56:55.000Z,98729
2023-02-20T19:58:22.000Z,98729
2023-02-20T20:00:28.000Z,98734
2023-02-20T20:01:55.000Z,98736
2023-02-20T20:04:01.000Z,98734
2023-02-20T20:06:52.000Z,98736
2023-02-20T20:08:18.000Z,98742
2023-02-20T20:10:25.000Z,98747
2023-02-20T20:11:51.000Z,98745
2023-02-20T20:13:57.000Z,98750
2023-02-20T20:15:24.000Z,98750
2023-02-20T20:17:30.000Z,98752
2023-02-20T20:18:56.000Z,98758
2023-02-20T20:21:02.000Z,98756
2023-02-20T20:22:29.000Z,98755
2023-02-20T20:24:35.000Z,98760
2023-02-20T20:26:02.000Z,98760
2023-02-20T20:28:08.000Z,98758
2023-02-20T20:29:34.000Z,98763
2023-02-20T20:31:40.000Z,98761
2023-02-20T20:33:07.000Z,98759
2023-02-20T20:35:13.000Z,98758
2023-02-20T20:36:40.000Z,98755
2023-02-20T20:38:46.000Z,98758
2023-02-20T20:40:12.000Z,98758
2023-02-20T20:42:18.000Z,98750
2023-02-20T20:45:10.000Z,98756
2023-02-20T20:46:36.000Z,98757
2023-02-20T20:48:42.000Z,98753
2023-02-20T20:50:09.000Z,98750
2023-02-20T20:52:15.000Z,98751
2023-02-20T20:53:41.000Z,98753
2023-02-20T20:55:47.000Z,98752
2023-02-20T20:57:14.000Z,98749
2023-02-20T20:59:20.000Z,98760
2023-02-20T21:00:46.000Z,98759
2023-02-20T21:02:53.000Z,98759
2023-02-20T21:04:19.000Z,98762
2023-02-20T21:06:25.000Z,98762
2023-02-20T21:07:52.000Z,98764
2023-02-20T21:09:58.000Z,98762
2023-02-20T21:11:25.000Z,98755
2023-02-20T21:13:31.000Z,98767
2023-02-20T21:14:57.000Z,98766
2023-02-20T21:17:04.000Z,98761
2023-02-20T21:18:30.000Z,98761
2023-02-20T21:20:36.000Z,98756
2023-02-20T21:23:27.000Z,98762
2023-02-20T21:24:54.000Z,98763
2023-02-20T21:27:00.000Z,98756
2023-02-20T21:28:26.000Z,98762
2023-02-20T21:30:33.000Z,98758
2023-02-20T21:31:59.000Z,98761
2023-02-20T21:34:05.000Z,98762
2023-02-20T21:35:32.000Z,98764
2023-02-20T21:37:38.000Z,98763
2023-02-20T21:39:04.000Z,98759
2023-02-20T21:41:11.000Z,98756
2023-02-20T21:42:37.000Z,98758
2023-02-20T21:44:43.000Z,98760
2023-02-20T21:46:10.000Z,98757
2023-02-20T21:48:16.000Z,98752
2023-02-20T21:49:43.000Z,98752
2023-02-20T21:51:49.000Z,98751
2023-02-20T21:53:15.000Z,98750
2023-02-20T21:55:22.000Z,98746
2023-02-20T21:56:48.000Z,98741
2023-02-20T21:58:54.000Z,98735
2023-02-20T22:01:45.000Z,98727
2023-02-20T22:03:12.000Z,98727
2023-02-20T22:05:18.000Z,98733
2023-02-20T22:06:45.000Z,98734
2023-02-20T22:08:51.000Z,98738
2023-02-20T22:10:17.000Z,98739
2023-02-20T22:12:23.000Z,98736
2023-02-20T22:13:50.000Z,98742
2023-02-20T22:15:56.000Z,98731
2023-02-20T22:17:23.000Z,98735
2023-02-20T22:19:29.000Z,98736
2023-02-20T22:20:55.000Z,98739
2023-02-20T22:23:01.000Z,98736
2023-02-20T22:24:28.000Z,98738
2023-02-20T22:26:44.000Z,98734
2023-02-20T22:28:11.000Z,98732
2023-02-20T22:30:17.000Z,98732
2023-02-20T22:31:43.000Z,98734
2023-02-20T22:33:50.000Z,98737
2023-02-20T22:35:16.000Z,98738
2023-02-20T22:37:22.000Z,98736
2023-02-20T22:40:14.000Z,98731
2023-02-20T22:41:40.000Z,98733
2023-02-20T22:43:46.000Z,98732
2023-02-20T22:45:13.000Z,98730
2023-02-20T22:47:19.000Z,98727
2023-02-20T22:48:45.000Z,98724
2023-02-20T22:50:51.000Z,98726
2023-02-20T22:52:18.000Z,98719
2023-02-20T22:54:24.000Z,98721
2023-02-20T22:55:51.000Z,98722
2023-02-20T22:57:57.000Z,98720
2023-02-20T22:59:23.000Z,98725
2023-02-20T23:01:29.000Z,98725
2023-02-20T23:02:56.000Z,98728
2023-02-20T23:05:02.000Z,98727
2023-02-20T23:06:28.000Z,98725
2023-02-20T23:08:34.000Z,98728
2023-02-20T23:10:01.000Z,98727
2023-02-20T23:12:07.000Z,98727
2023-02-20T23:13:33.000Z,98731
2023-02-20T23:15:39.000Z,98731
2023-02-20T23:18:31.000Z,98738
2023-02-20T23:19:57.000Z,98729
2023-02-20T23:22:03.000Z,98730
2023-02-20T23:23:30.000Z,98736
2023-02-20T23:25:36.000Z,98735
2023-02-20T23:27:02.000Z,98734
2023-02-20T23:29:08.000Z,98735
2023-02-20T23:30:35.000Z,98741